createdAt,value
2019-04-21T00:00:11.220Z,0.00
2019-04-21T00:01:10.216Z,0.00
2019-04-21T00:02:05.859Z,0.00
2019-04-21T00:03:12.872Z,0.00
2019-04-21T00:04:19.885Z,0.00
2019-04-21T00:05:24.672Z,0.00
2019-04-21T00:06:32.183Z,0.00
2019-04-21T00:07:26.498Z,0.00
2019-04-21T00:08:30.752Z,0.00
2019-04-21T00:09:33.669Z,0.00
2019-04-21T00:10:28.229Z,0.00
2019-04-21T00:11:30.015Z,0.00
2019-04-21T00:12:22.006Z,0.00
2019-04-21T00:13:23.884Z,0.00
2019-04-21T00:14:23.650Z,0.00
2019-04-21T00:15:16.739Z,0.00
2019-04-21T00:16:11.983Z,0.00
2019-04-21T00:17:12.985Z,0.00
2019-04-21T00:18:11.054Z,0.00
2019-04-21T00:19:14.509Z,0.00
2019-04-21T00:20:21.327Z,0.00
2019-04-21T00:21:21.147Z,0.00
2019-04-21T00:22:23.727Z,0.00
2019-04-21T00:23:24.246Z,0.00
2019-04-21T00:24:23.285Z,0.00
2019-04-21T00:25:25.326Z,0.00
2019-04-21T00:26:32.103Z,0.00
2019-04-21T00:27:30.866Z,0.00
2019-04-21T00:28:39.290Z,0.00
2019-04-21T00:29:34.042Z,0.00
2019-04-21T00:30:34.113Z,0.00
2019-04-21T00:31:28.511Z,0.00
2019-04-21T00:32:25.727Z,0.00
2019-04-21T00:33:19.222Z,0.00
2019-04-21T00:34:13.214Z,0.00
2019-04-21T00:35:18.722Z,0.00
2019-04-21T00:36:20.209Z,0.00
2019-04-21T00:37:25.460Z,0.00
2019-04-21T00:38:33.888Z,0.00
2019-04-21T00:39:44.034Z,0.00
2019-04-21T00:40:35.509Z,0.00
2019-04-21T00:41:38.021Z,0.00
2019-04-21T00:42:34.544Z,0.00
2019-04-21T00:43:29.447Z,0.00
2019-04-21T00:44:25.887Z,0.00
2019-04-21T00:45:28.829Z,0.00
2019-04-21T00:46:32.249Z,0.00
2019-04-21T00:47:34.090Z,0.00
2019-04-21T00:48:37.758Z,0.00
2019-04-21T00:49:26.945Z,0.00
2019-04-21T00:50:40.726Z,0.00
2019-04-21T00:51:45.662Z,0.00
2019-04-21T00:52:56.513Z,0.00
2019-04-21T00:53:43.731Z,0.00
2019-04-21T00:54:44.349Z,0.00
2019-04-21T00:55:42.617Z,0.00
2019-04-21T00:56:41.318Z,0.00
2019-04-21T00:57:38.813Z,0.00
2019-04-21T00:58:39.326Z,0.00
2019-04-21T00:59:41.994Z,0.00
2019-04-21T01:00:43.013Z,0.00
2019-04-21T01:01:42.468Z,0.00
2019-04-21T01:02:45.541Z,0.00
2019-04-21T01:03:37.257Z,0.00
2019-04-21T01:04:42.985Z,0.00
2019-04-21T01:05:42.938Z,0.00
2019-04-21T01:06:46.798Z,0.00
2019-04-21T01:07:37.144Z,0.00
2019-04-21T01:08:35.595Z,0.00
2019-04-21T01:09:32.744Z,0.00
2019-04-21T01:10:33.563Z,0.00
2019-04-21T01:11:44.912Z,0.00
2019-04-21T01:12:41.839Z,0.00
2019-04-21T01:13:42.237Z,0.00
2019-04-21T01:14:50.261Z,0.00
2019-04-21T01:15:43.595Z,0.00
2019-04-21T01:16:48.602Z,0.00
2019-04-21T01:17:40.644Z,0.00
2019-04-21T01:18:36.891Z,0.00
2019-04-21T01:19:37.035Z,0.00
2019-04-21T01:20:20.509Z,0.00
2019-04-21T01:21:20.696Z,0.00
2019-04-21T01:22:20.892Z,0.00
2019-04-21T01:23:21.364Z,0.00
2019-04-21T01:24:28.588Z,0.00
2019-04-21T01:25:30.324Z,0.00
2019-04-21T01:26:32.855Z,0.00
2019-04-21T01:27:43.785Z,0.00
2019-04-21T01:28:41.370Z,0.00
2019-04-21T01:29:46.001Z,0.00
2019-04-21T01:30:39.875Z,0.00
2019-04-21T01:31:36.281Z,0.00
2019-04-21T01:32:47.098Z,0.00
2019-04-21T01:33:44.350Z,0.00
2019-04-21T01:34:47.070Z,0.00
2019-04-21T01:35:46.809Z,0.00
2019-04-21T01:36:34.606Z,0.00
2019-04-21T01:37:54.633Z,0.00
2019-04-21T01:38:48.628Z,0.00
2019-04-21T01:39:46.979Z,0.00
2019-04-21T01:40:44.972Z,0.00
2019-04-21T01:41:46.227Z,0.00
2019-04-21T01:42:45.873Z,0.00
2019-04-21T01:43:45.797Z,0.00
2019-04-21T01:44:49.895Z,0.00
2019-04-21T01:45:44.784Z,0.00
2019-04-21T01:46:40.870Z,0.00
2019-04-21T01:47:40.836Z,0.00
2019-04-21T01:48:41.025Z,0.00
2019-04-21T01:49:39.488Z,0.00
2019-04-21T01:50:42.870Z,0.00
2019-04-21T01:52:54.621Z,0.00
2019-04-21T01:53:48.205Z,0.00
2019-04-21T01:54:50.317Z,0.00
2019-04-21T01:55:48.553Z,0.00
2019-04-21T01:56:44.554Z,0.00
2019-04-21T01:57:47.467Z,0.00
2019-04-21T01:58:38.770Z,0.00
2019-04-21T01:59:42.498Z,0.00
2019-04-21T02:00:45.132Z,0.00
2019-04-21T02:01:47.188Z,0.00
2019-04-21T02:02:54.417Z,0.00
2019-04-21T02:03:52.530Z,0.00
2019-04-21T02:04:58.730Z,0.00
2019-04-21T02:05:54.576Z,0.00
2019-04-21T02:06:55.038Z,0.00
2019-04-21T02:07:53.026Z,0.00
2019-04-21T02:08:48.789Z,0.00
2019-04-21T02:09:55.426Z,0.00
2019-04-21T02:10:56.030Z,0.00
2019-04-21T02:11:57.745Z,0.00
2019-04-21T02:12:53.900Z,0.00
2019-04-21T02:13:57.241Z,0.00
2019-04-21T02:15:00.755Z,0.00
2019-04-21T02:15:56.085Z,0.00
2019-04-21T02:16:54.107Z,0.00
2019-04-21T02:17:55.081Z,0.00
2019-04-21T02:18:50.982Z,0.00
2019-04-21T02:19:45.844Z,0.00
2019-04-21T02:20:41.078Z,0.00
2019-04-21T02:21:43.294Z,0.00
2019-04-21T02:23:24.807Z,0.00
2019-04-21T02:23:59.068Z,0.00
2019-04-21T02:24:58.396Z,0.00
2019-04-21T02:25:57.574Z,0.00
2019-04-21T02:26:52.713Z,0.00
2019-04-21T02:28:00.795Z,0.00
2019-04-21T02:31:14.239Z,0.00
2019-04-21T02:32:10.655Z,0.00
2019-04-21T02:33:16.841Z,0.00
2019-04-21T02:36:26.624Z,0.00
2019-04-21T02:37:27.208Z,0.00
2019-04-21T02:39:23.116Z,0.00
2019-04-21T02:40:25.507Z,0.00
2019-04-21T02:41:01.469Z,0.00
2019-04-21T02:42:01.748Z,0.00
2019-04-21T02:44:10.531Z,0.00
2019-04-21T02:45:09.176Z,0.00
2019-04-21T02:46:54.694Z,0.00
2019-04-21T02:48:08.725Z,0.00
2019-04-21T02:49:13.133Z,0.00
2019-04-21T02:50:11.864Z,0.00
2019-04-21T02:51:10.439Z,0.00
2019-04-21T02:52:11.524Z,0.00
2019-04-21T02:53:11.488Z,0.00
2019-04-21T02:56:13.918Z,0.00
2019-04-21T02:59:23.326Z,0.00
2019-04-21T03:01:12.843Z,0.00
2019-04-21T03:03:17.676Z,0.00
2019-04-21T03:04:11.233Z,0.00
2019-04-21T03:05:20.446Z,0.00
2019-04-21T03:06:08.690Z,0.00
2019-04-21T03:07:12.489Z,0.00
2019-04-21T03:08:40.485Z,0.00
2019-04-21T03:10:11.551Z,0.00
2019-04-21T03:12:11.588Z,0.00
2019-04-21T03:13:13.891Z,0.00
2019-04-21T03:14:16.109Z,0.00
2019-04-21T03:15:18.754Z,0.00
2019-04-21T03:17:14.357Z,0.00
2019-04-21T03:18:18.671Z,0.00
2019-04-21T03:19:20.451Z,0.00
2019-04-21T03:22:20.863Z,0.00
2019-04-21T03:23:23.965Z,0.00
2019-04-21T03:24:49.275Z,0.00
2019-04-21T03:25:30.757Z,0.00
2019-04-21T03:26:20.222Z,0.00
2019-04-21T03:27:37.714Z,0.00
2019-04-21T03:28:16.279Z,0.00
2019-04-21T03:29:19.922Z,0.00
2019-04-21T03:30:58.851Z,0.00
2019-04-21T03:31:49.663Z,0.00
2019-04-21T03:35:46.399Z,0.00
2019-04-21T03:37:33.454Z,4.00
2019-04-21T03:38:24.652Z,4.00
2019-04-21T03:39:09.464Z,0.00
2019-04-21T03:40:15.218Z,4.00
2019-04-21T03:42:26.997Z,4.00
2019-04-21T03:43:20.537Z,4.00
2019-04-21T03:44:24.673Z,4.00
2019-04-21T03:45:27.117Z,4.00
2019-04-21T03:46:15.854Z,8.00
2019-04-21T03:47:23.547Z,4.00
2019-04-21T03:48:19.045Z,8.00
2019-04-21T03:50:20.856Z,12.00
2019-04-21T03:51:20.205Z,12.00
2019-04-21T03:52:19.516Z,16.00
2019-04-21T03:53:18.656Z,20.00
2019-04-21T03:54:18.111Z,24.00
2019-04-21T03:55:41.401Z,24.00
2019-04-21T03:56:27.150Z,32.00
2019-04-21T03:57:32.382Z,40.00
2019-04-21T03:59:16.533Z,52.00
2019-04-21T04:00:35.906Z,60.00
2019-04-21T04:02:22.988Z,84.00
2019-04-21T04:05:43.862Z,120.00
2019-04-21T04:07:44.248Z,156.00
2019-04-21T04:08:31.852Z,180.00
2019-04-21T04:09:30.781Z,200.00
2019-04-21T04:10:23.906Z,224.00
2019-04-21T04:11:30.111Z,248.00
2019-04-21T04:12:19.013Z,280.00
2019-04-21T04:13:34.201Z,308.00
2019-04-21T04:14:23.417Z,344.00
2019-04-21T04:15:31.509Z,376.00
2019-04-21T04:17:25.703Z,452.00
2019-04-21T04:18:41.163Z,492.00
2019-04-21T04:19:30.933Z,536.00
2019-04-21T04:21:28.694Z,632.00
2019-04-21T04:23:32.500Z,736.00
2019-04-21T04:26:39.774Z,912.00
2019-04-21T04:27:49.582Z,980.00
2019-04-21T04:28:28.649Z,1044.00
2019-04-21T04:29:24.199Z,1116.00
2019-04-21T04:31:35.348Z,1264.00
2019-04-21T04:32:32.457Z,1344.00
2019-04-21T04:33:43.888Z,1428.00
2019-04-21T04:34:27.632Z,1516.00
2019-04-21T04:35:35.942Z,1616.00
2019-04-21T04:36:47.424Z,1708.00
2019-04-21T04:37:32.847Z,1840.00
2019-04-21T04:38:36.133Z,2060.00
2019-04-21T04:40:31.033Z,2488.00
2019-04-21T04:41:38.251Z,2664.00
2019-04-21T04:42:45.826Z,2968.00
2019-04-21T04:43:28.594Z,3308.00
2019-04-21T04:44:46.409Z,3644.00
2019-04-21T04:45:30.749Z,4052.00
2019-04-21T04:46:26.740Z,4016.00
2019-04-21T04:47:24.371Z,3896.00
2019-04-21T04:48:31.277Z,4272.00
2019-04-21T04:49:43.131Z,4768.00
2019-04-21T04:52:01.958Z,5932.00
2019-04-21T04:52:34.254Z,5696.00
2019-04-21T04:53:45.861Z,4880.00
2019-04-21T04:55:33.210Z,6132.00
2019-04-21T04:56:31.144Z,5964.00
2019-04-21T04:58:54.653Z,7020.00
2019-04-21T05:00:34.505Z,8004.00
2019-04-21T05:01:41.037Z,7752.00
2019-04-21T05:02:33.661Z,10088.00
2019-04-21T05:03:44.384Z,13216.00
2019-04-21T05:04:39.762Z,14528.00
2019-04-21T05:05:36.321Z,15264.00
2019-04-21T05:07:46.496Z,16480.00
2019-04-21T05:08:49.219Z,17088.00
2019-04-21T05:09:37.632Z,17792.00
2019-04-21T05:10:52.351Z,18496.00
2019-04-21T05:12:30.948Z,19360.00
2019-04-21T05:13:35.166Z,19616.00
2019-04-21T05:14:32.658Z,20032.00
2019-04-21T05:15:25.580Z,20640.00
2019-04-21T05:17:38.208Z,22304.00
2019-04-21T05:18:34.534Z,23360.00
2019-04-21T05:19:38.159Z,23520.00
2019-04-21T05:20:26.173Z,23264.00
2019-04-21T05:21:34.818Z,22688.00
2019-04-21T05:22:31.131Z,22528.00
2019-04-21T05:23:29.211Z,23008.00
2019-04-21T05:24:25.499Z,23648.00
2019-04-21T05:25:23.393Z,24512.00
2019-04-21T05:26:18.550Z,25440.00
2019-04-21T05:27:20.363Z,26176.00
2019-04-21T05:28:21.871Z,26560.00
2019-04-21T05:29:20.404Z,26848.00
2019-04-21T05:31:34.597Z,27648.00
2019-04-21T05:32:31.972Z,28288.00
2019-04-21T05:33:34.574Z,29280.00
2019-04-21T05:34:42.668Z,30176.00
2019-04-21T05:35:30.732Z,30976.00
2019-04-21T05:36:27.869Z,31200.00
2019-04-21T05:37:33.186Z,31136.00
2019-04-21T05:38:27.380Z,31552.00
2019-04-21T05:39:27.445Z,32896.00
2019-04-21T05:40:22.284Z,35072.00
2019-04-21T05:41:20.698Z,37632.00
2019-04-21T05:42:23.874Z,39968.00
2019-04-21T05:43:32.251Z,41312.00
2019-04-21T05:44:35.392Z,41024.00
2019-04-21T05:45:34.832Z,39936.00
2019-04-21T05:46:32.284Z,39168.00
2019-04-21T05:47:34.228Z,40032.00
2019-04-21T05:48:36.404Z,42112.00
2019-04-21T05:49:29.546Z,45632.00
2019-04-21T05:50:26.597Z,48768.00
2019-04-21T05:51:30.515Z,50336.00
2019-04-21T05:52:26.454Z,49824.00
2019-04-21T05:53:35.697Z,48096.00
2019-04-21T05:54:39.614Z,46432.00
2019-04-21T05:55:40.593Z,45120.00
2019-04-21T05:56:36.639Z,45120.00
2019-04-21T05:57:33.543Z,46080.00
2019-04-21T05:58:33.369Z,47744.00
2019-04-21T05:59:32.388Z,49216.00
2019-04-21T06:00:52.933Z,49856.00
2019-04-21T06:01:41.094Z,50464.00
2019-04-21T06:02:35.501Z,51264.00
2019-04-21T06:04:49.915Z,53472.00
2019-04-21T06:05:44.538Z,54848.00
2019-04-21T06:06:40.882Z,56032.00
2019-04-21T06:07:33.478Z,56992.00
2019-04-21T06:08:39.039Z,58016.00
2019-04-21T06:09:35.143Z,58336.00
2019-04-21T06:10:42.273Z,58464.00
2019-04-21T06:11:38.733Z,59360.00
2019-04-21T06:12:40.624Z,60768.00
2019-04-21T06:13:42.711Z,61856.00
2019-04-21T06:14:46.838Z,62304.00
2019-04-21T06:15:42.948Z,63296.00
2019-04-21T06:16:45.130Z,62816.00
2019-04-21T06:18:57.248Z,62720.00
2019-04-21T06:19:43.786Z,62624.00
2019-04-21T06:20:44.460Z,61280.00
2019-04-21T06:21:38.561Z,60992.00
2019-04-21T06:22:42.349Z,61792.00
2019-04-21T06:23:51.512Z,62464.00
2019-04-21T06:24:45.765Z,63104.00
2019-04-21T06:26:53.867Z,66048.00
2019-04-21T06:27:37.923Z,67840.00
2019-04-21T06:28:46.753Z,68608.00
2019-04-21T06:29:44.180Z,69312.00
2019-04-21T06:30:53.051Z,69312.00
2019-04-21T06:34:03.727Z,71136.00
2019-04-21T06:35:01.062Z,72352.00
2019-04-21T06:36:43.975Z,74272.00
2019-04-21T06:38:00.118Z,75104.00
2019-04-21T06:38:58.299Z,74464.00
2019-04-21T06:40:01.605Z,72480.00
2019-04-21T06:40:48.667Z,70624.00
2019-04-21T06:41:39.898Z,70464.00
2019-04-21T06:42:51.463Z,70528.00
2019-04-21T06:43:48.449Z,70720.00
2019-04-21T06:44:54.121Z,71488.00
2019-04-21T06:45:50.746Z,71776.00
2019-04-21T06:46:40.850Z,71552.00
2019-04-21T06:48:49.733Z,72512.00
2019-04-21T06:49:47.391Z,72864.00
2019-04-21T06:50:46.577Z,73440.00
2019-04-21T06:51:43.641Z,73856.00
2019-04-21T06:53:53.966Z,73440.00
2019-04-21T06:54:52.883Z,73600.00
2019-04-21T06:55:49.076Z,73984.00
2019-04-21T06:56:48.348Z,74112.00
2019-04-21T06:57:46.278Z,73216.00
2019-04-21T06:58:48.158Z,69504.00
2019-04-21T06:59:43.620Z,64992.00
2019-04-21T07:00:41.303Z,61280.00
2019-04-21T07:01:52.736Z,60352.00
2019-04-21T07:02:59.955Z,63072.00
2019-04-21T07:04:03.029Z,68768.00
2019-04-21T07:04:50.123Z,73952.00
2019-04-21T07:05:49.025Z,76544.00
2019-04-21T07:06:48.221Z,77312.00
2019-04-21T07:08:05.146Z,74848.00
2019-04-21T07:08:53.205Z,72384.00
2019-04-21T07:09:52.861Z,69664.00
2019-04-21T07:10:43.269Z,69760.00
2019-04-21T07:11:52.855Z,72576.00
2019-04-21T07:12:46.567Z,77600.00
2019-04-21T07:13:44.124Z,82688.00
2019-04-21T07:14:47.890Z,85504.00
2019-04-21T07:15:53.897Z,85408.00
2019-04-21T07:17:03.174Z,83552.00
2019-04-21T07:17:53.998Z,79936.00
2019-04-21T07:19:01.130Z,76960.00
2019-04-21T07:19:55.184Z,75808.00
2019-04-21T07:20:56.473Z,76000.00
2019-04-21T07:21:52.442Z,78400.00
2019-04-21T07:23:09.288Z,81440.00
2019-04-21T07:23:53.770Z,83936.00
2019-04-21T07:24:48.809Z,85312.00
2019-04-21T07:25:51.437Z,84832.00
2019-04-21T07:26:55.559Z,84256.00
2019-04-21T07:27:52.670Z,84032.00
2019-04-21T07:28:56.829Z,84096.00
2019-04-21T07:29:54.956Z,85280.00
2019-04-21T07:30:59.073Z,86368.00
2019-04-21T07:31:59.137Z,87872.00
2019-04-21T07:32:58.134Z,87968.00
2019-04-21T07:34:57.654Z,87136.00
2019-04-21T07:35:51.764Z,85600.00
2019-04-21T07:36:54.657Z,85952.00
2019-04-21T07:37:53.508Z,87008.00
2019-04-21T07:38:50.314Z,89376.00
2019-04-21T07:39:52.745Z,89920.00
2019-04-21T07:40:45.896Z,90272.00
2019-04-21T07:41:49.734Z,91104.00
2019-04-21T07:42:54.164Z,90144.00
2019-04-21T07:43:47.769Z,90368.00
2019-04-21T07:44:51.263Z,90400.00
2019-04-21T07:45:49.802Z,91168.00
2019-04-21T07:46:45.294Z,92512.00
2019-04-21T07:47:57.934Z,93728.00
2019-04-21T07:48:58.461Z,94496.00
2019-04-21T07:49:57.424Z,95040.00
2019-04-21T07:50:57.459Z,95104.00
2019-04-21T07:51:56.811Z,93920.00
2019-04-21T07:53:02.661Z,93760.00
2019-04-21T07:54:01.859Z,93600.00
2019-04-21T07:55:11.344Z,94528.00
2019-04-21T07:55:37.440Z,94720.00
2019-04-21T07:56:45.498Z,97504.00
2019-04-21T07:57:52.150Z,97344.00
2019-04-21T07:58:59.153Z,96384.00
2019-04-21T08:00:12.055Z,94272.00
2019-04-21T08:02:00.806Z,91072.00
2019-04-21T08:03:02.170Z,89728.00
2019-04-21T08:04:03.654Z,89984.00
2019-04-21T08:05:02.683Z,90656.00
2019-04-21T08:05:58.868Z,90784.00
2019-04-21T08:06:58.219Z,91008.00
2019-04-21T08:07:55.733Z,91872.00
2019-04-21T08:08:59.440Z,93184.00
2019-04-21T08:09:56.968Z,93760.00
2019-04-21T08:10:59.790Z,94272.00
2019-04-21T08:11:51.785Z,94432.00
2019-04-21T08:12:55.530Z,93792.00
2019-04-21T08:13:57.772Z,93440.00
2019-04-21T08:14:57.447Z,93024.00
2019-04-21T08:15:57.726Z,93792.00
2019-04-21T08:18:03.712Z,93824.00
2019-04-21T08:18:59.877Z,93600.00
2019-04-21T08:20:01.692Z,92896.00
2019-04-21T08:21:01.289Z,92224.00
2019-04-21T08:22:08.005Z,89600.00
2019-04-21T08:24:00.286Z,86176.00
2019-04-21T08:25:02.820Z,85920.00
2019-04-21T08:27:05.316Z,89056.00
2019-04-21T08:28:24.076Z,90560.00
2019-04-21T08:29:13.233Z,91360.00
2019-04-21T08:30:06.185Z,93088.00
2019-04-21T08:31:01.425Z,93216.00
2019-04-21T08:33:09.208Z,92128.00
2019-04-21T08:34:09.591Z,95552.00
2019-04-21T08:35:22.429Z,99808.00
2019-04-21T08:37:10.102Z,104096.00
2019-04-21T08:38:05.231Z,100064.00
2019-04-21T08:39:06.524Z,90240.00
2019-04-21T08:40:14.077Z,81856.00
2019-04-21T08:41:18.172Z,75936.00
2019-04-21T08:42:06.552Z,74208.00
2019-04-21T08:43:02.524Z,75136.00
2019-04-21T08:44:01.673Z,78368.00
2019-04-21T08:45:07.371Z,78752.00
2019-04-21T08:46:05.438Z,78784.00
2019-04-21T08:47:07.895Z,79296.00
2019-04-21T08:48:04.198Z,79328.00
2019-04-21T08:49:10.884Z,82816.00
2019-04-21T08:50:08.263Z,85888.00
2019-04-21T08:51:20.932Z,89088.00
2019-04-21T08:52:09.785Z,89504.00
2019-04-21T08:53:07.937Z,89696.00
2019-04-21T08:54:09.441Z,88864.00
2019-04-21T08:55:10.946Z,86048.00
2019-04-21T08:56:10.618Z,83680.00
2019-04-21T08:57:10.018Z,83872.00
2019-04-21T08:58:15.492Z,85472.00
2019-04-21T08:59:17.637Z,84992.00
2019-04-21T09:00:18.603Z,81664.00
2019-04-21T09:01:13.330Z,73984.00
2019-04-21T09:02:06.477Z,68192.00
2019-04-21T09:03:11.199Z,71680.00
2019-04-21T09:04:07.614Z,78528.00
2019-04-21T09:06:17.604Z,84896.00
2019-04-21T09:07:16.197Z,87104.00
2019-04-21T09:08:12.857Z,82720.00
2019-04-21T09:09:11.846Z,79328.00
2019-04-21T09:10:12.656Z,78496.00
2019-04-21T09:11:08.176Z,78080.00
2019-04-21T09:12:10.620Z,77600.00
2019-04-21T09:13:14.882Z,77632.00
2019-04-21T09:14:15.310Z,78304.00
2019-04-21T09:15:08.604Z,78848.00
2019-04-21T09:16:08.514Z,79296.00
2019-04-21T09:17:08.261Z,79392.00
2019-04-21T09:18:11.973Z,78976.00
2019-04-21T09:19:04.664Z,78816.00
2019-04-21T09:20:16.882Z,80672.00
2019-04-21T09:21:15.989Z,81312.00
2019-04-21T09:22:12.887Z,81248.00
2019-04-21T09:23:13.375Z,80928.00
2019-04-21T09:24:13.309Z,80832.00
2019-04-21T09:25:09.364Z,80064.00
2019-04-21T09:26:14.415Z,79648.00
2019-04-21T09:27:08.422Z,78880.00
2019-04-21T09:28:14.050Z,78464.00
2019-04-21T09:29:04.237Z,78912.00
2019-04-21T09:29:59.416Z,79968.00
2019-04-21T09:30:58.467Z,81344.00
2019-04-21T09:31:57.294Z,81856.00
2019-04-21T09:32:58.192Z,81728.00
2019-04-21T09:34:00.289Z,83424.00
2019-04-21T09:34:56.112Z,83680.00
2019-04-21T09:36:01.023Z,84352.00
2019-04-21T09:37:12.702Z,84160.00
2019-04-21T09:38:03.974Z,83712.00
2019-04-21T09:39:05.481Z,82880.00
2019-04-21T09:39:57.844Z,82112.00
2019-04-21T09:40:58.290Z,81504.00
2019-04-21T09:42:00.951Z,80288.00
2019-04-21T09:43:03.249Z,79072.00
2019-04-21T09:43:59.380Z,77632.00
2019-04-21T09:45:02.650Z,76640.00
2019-04-21T09:45:58.899Z,76416.00
2019-04-21T09:47:01.949Z,76672.00
2019-04-21T09:48:04.521Z,75968.00
2019-04-21T09:49:02.665Z,76064.00
2019-04-21T09:50:01.814Z,76416.00
2019-04-21T09:50:59.683Z,76320.00
2019-04-21T09:51:59.938Z,76448.00
2019-04-21T09:53:10.653Z,76224.00
2019-04-21T09:54:05.761Z,75424.00
2019-04-21T09:55:07.289Z,74688.00
2019-04-21T09:56:04.694Z,74528.00
2019-04-21T09:57:07.110Z,75136.00
2019-04-21T09:58:10.081Z,74720.00
2019-04-21T09:59:11.409Z,74688.00
2019-04-21T10:00:12.008Z,75232.00
2019-04-21T10:01:11.812Z,74720.00
2019-04-21T10:02:09.634Z,74336.00
2019-04-21T10:03:06.740Z,74784.00
2019-04-21T10:04:04.309Z,75008.00
2019-04-21T10:05:02.355Z,75744.00
2019-04-21T10:06:02.568Z,76480.00
2019-04-21T10:07:02.781Z,75904.00
2019-04-21T10:08:03.613Z,74720.00
2019-04-21T10:09:05.930Z,75040.00
2019-04-21T10:10:03.852Z,75360.00
2019-04-21T10:11:03.604Z,75520.00
2019-04-21T10:12:03.802Z,76256.00
2019-04-21T10:13:05.025Z,77184.00
2019-04-21T10:14:05.259Z,77952.00
2019-04-21T10:15:04.475Z,76640.00
2019-04-21T10:16:05.187Z,75936.00
2019-04-21T10:17:04.863Z,74624.00
2019-04-21T10:18:06.260Z,73440.00
2019-04-21T10:19:05.249Z,72480.00
2019-04-21T10:20:05.455Z,72128.00
2019-04-21T10:21:05.667Z,72576.00
2019-04-21T10:22:05.988Z,71328.00
2019-04-21T10:23:07.151Z,70720.00
2019-04-21T10:24:06.387Z,68832.00
2019-04-21T10:25:06.725Z,66880.00
2019-04-21T10:26:06.671Z,65440.00
2019-04-21T10:27:08.551Z,63840.00
2019-04-21T10:28:07.364Z,63936.00
2019-04-21T10:29:14.889Z,64864.00
2019-04-21T10:30:07.906Z,64992.00
2019-04-21T10:31:08.971Z,64480.00
2019-04-21T10:32:09.076Z,63872.00
2019-04-21T10:33:08.418Z,62656.00
2019-04-21T10:34:09.342Z,61696.00
2019-04-21T10:35:08.517Z,61088.00
2019-04-21T10:36:08.950Z,61440.00
2019-04-21T10:37:09.155Z,61824.00
2019-04-21T10:38:20.051Z,62560.00
2019-04-21T10:39:09.457Z,62176.00
2019-04-21T10:40:09.689Z,62176.00
2019-04-21T10:41:09.753Z,62528.00
2019-04-21T10:42:11.172Z,62368.00
2019-04-21T10:43:12.427Z,62720.00
2019-04-21T10:44:11.428Z,62240.00
2019-04-21T10:45:10.901Z,62560.00
2019-04-21T10:46:10.835Z,62272.00
2019-04-21T10:47:11.164Z,61504.00
2019-04-21T10:48:12.545Z,60896.00
2019-04-21T10:49:12.650Z,59104.00
2019-04-21T10:50:12.926Z,58432.00
2019-04-21T10:51:12.937Z,58240.00
2019-04-21T10:52:13.005Z,58048.00
2019-04-21T10:53:14.288Z,50976.00
2019-04-21T10:54:13.617Z,58720.00
2019-04-21T10:55:31.817Z,58944.00
2019-04-21T10:56:21.751Z,58496.00
2019-04-21T10:57:13.031Z,58080.00
2019-04-21T10:58:14.195Z,57600.00
2019-04-21T10:59:14.285Z,57152.00
2019-04-21T11:00:14.449Z,56928.00
2019-04-21T11:01:14.409Z,56672.00
2019-04-21T11:02:14.756Z,56256.00
2019-04-21T11:03:14.874Z,56320.00
2019-04-21T11:04:21.180Z,56416.00
2019-04-21T11:05:14.635Z,56608.00
2019-04-21T11:06:14.827Z,55776.00
2019-04-21T11:07:19.210Z,55488.00
2019-04-21T11:08:22.784Z,54688.00
2019-04-21T11:09:15.827Z,53824.00
2019-04-21T11:10:16.114Z,52832.00
2019-04-21T11:11:16.232Z,51648.00
2019-04-21T11:12:16.030Z,50784.00
2019-04-21T11:13:16.617Z,50240.00
2019-04-21T11:14:17.584Z,48768.00
2019-04-21T11:15:17.137Z,48480.00
2019-04-21T11:16:17.286Z,47808.00
2019-04-21T11:17:18.203Z,48576.00
2019-04-21T11:18:17.760Z,42176.00
2019-04-21T11:19:17.989Z,30272.00
2019-04-21T11:20:19.095Z,19232.00
2019-04-21T11:21:18.765Z,15024.00
2019-04-21T11:22:18.892Z,14916.00
2019-04-21T11:23:21.161Z,14856.00
2019-04-21T11:24:18.522Z,14852.00
2019-04-21T11:25:20.017Z,14796.00
2019-04-21T11:26:20.019Z,14732.00
2019-04-21T11:27:19.197Z,14684.00
2019-04-21T11:28:20.432Z,14648.00
2019-04-21T11:29:21.123Z,14624.00
2019-04-21T11:30:20.022Z,14612.00
2019-04-21T11:31:20.889Z,14564.00
2019-04-21T11:32:21.190Z,14484.00
2019-04-21T11:33:21.343Z,14404.00
2019-04-21T11:34:21.101Z,14316.00
2019-04-21T11:35:21.245Z,14264.00
2019-04-21T11:36:21.627Z,14116.00
2019-04-21T11:37:21.962Z,13996.00
2019-04-21T11:38:24.883Z,13884.00
2019-04-21T11:39:31.557Z,13780.00
2019-04-21T11:40:23.494Z,13736.00
2019-04-21T11:41:21.943Z,13692.00
2019-04-21T11:42:22.145Z,13572.00
2019-04-21T11:43:22.341Z,13536.00
2019-04-21T11:44:24.621Z,13448.00
2019-04-21T11:45:24.249Z,13344.00
2019-04-21T11:46:22.943Z,13256.00
2019-04-21T11:47:23.139Z,13220.00
2019-04-21T11:48:24.205Z,13164.00
2019-04-21T11:49:24.529Z,13148.00
2019-04-21T11:50:23.750Z,13056.00
2019-04-21T11:51:24.914Z,13000.00
2019-04-21T11:52:25.058Z,12932.00
2019-04-21T11:53:25.182Z,12860.00
2019-04-21T11:54:24.731Z,12784.00
2019-04-21T11:55:27.439Z,12732.00
2019-04-21T11:56:25.169Z,12624.00
2019-04-21T11:57:28.683Z,12568.00
2019-04-21T11:58:26.256Z,12484.00
2019-04-21T11:59:25.817Z,12440.00
2019-04-21T12:00:25.746Z,12412.00
2019-04-21T12:01:25.937Z,12344.00
2019-04-21T12:02:26.132Z,12284.00
2019-04-21T12:03:27.531Z,12208.00
2019-04-21T12:04:27.525Z,12168.00
2019-04-21T12:05:27.645Z,12088.00
2019-04-21T12:06:32.383Z,12056.00
2019-04-21T12:07:27.265Z,12032.00
2019-04-21T12:08:33.222Z,11984.00
2019-04-21T12:09:27.528Z,11972.00
2019-04-21T12:10:27.709Z,11896.00
2019-04-21T12:11:29.096Z,11872.00
2019-04-21T12:12:29.513Z,11832.00
2019-04-21T12:13:28.308Z,11776.00
2019-04-21T12:14:28.502Z,11748.00
2019-04-21T12:15:29.176Z,11684.00
2019-04-21T12:16:28.941Z,11676.00
2019-04-21T12:17:29.997Z,11632.00
2019-04-21T12:18:30.516Z,11604.00
2019-04-21T12:19:30.557Z,11568.00
2019-04-21T12:20:30.586Z,11528.00
2019-04-21T12:21:45.064Z,11476.00
2019-04-21T12:22:33.660Z,11472.00
2019-04-21T12:23:30.379Z,11448.00
2019-04-21T12:24:32.791Z,11432.00
2019-04-21T12:25:31.380Z,11392.00
2019-04-21T12:26:31.807Z,11356.00
2019-04-21T12:27:32.030Z,11332.00
2019-04-21T12:28:32.402Z,11292.00
2019-04-21T12:29:31.515Z,11224.00
2019-04-21T12:30:31.705Z,11204.00
2019-04-21T12:31:31.907Z,11204.00
2019-04-21T12:32:32.104Z,11160.00
2019-04-21T12:33:32.300Z,11184.00
2019-04-21T12:34:32.494Z,11292.00
2019-04-21T12:35:33.555Z,11484.00
2019-04-21T12:36:33.831Z,11640.00
2019-04-21T12:37:33.112Z,11464.00
2019-04-21T12:38:42.543Z,11216.00
2019-04-21T12:39:34.748Z,11160.00
2019-04-21T12:40:34.664Z,11152.00
2019-04-21T12:41:33.881Z,10968.00
2019-04-21T12:42:34.573Z,10800.00
2019-04-21T12:43:34.874Z,10732.00
2019-04-21T12:44:34.459Z,10692.00
2019-04-21T12:45:35.798Z,10652.00
2019-04-21T12:46:35.978Z,10592.00
2019-04-21T12:47:35.075Z,10552.00
2019-04-21T12:48:35.837Z,10536.00
2019-04-21T12:49:35.881Z,10512.00
2019-04-21T12:50:36.000Z,10476.00
2019-04-21T12:51:35.881Z,10444.00
2019-04-21T12:52:36.075Z,10388.00
2019-04-21T12:53:36.272Z,10348.00
2019-04-21T12:54:37.684Z,10340.00
2019-04-21T12:55:41.134Z,10296.00
2019-04-21T12:56:37.929Z,10268.00
2019-04-21T12:57:37.252Z,10244.00
2019-04-21T12:58:37.428Z,10212.00
2019-04-21T12:59:38.174Z,10172.00
2019-04-21T13:00:38.867Z,10108.00
2019-04-21T13:01:39.026Z,10084.00
2019-04-21T13:02:38.097Z,10012.00
2019-04-21T13:03:39.412Z,9996.00
2019-04-21T13:04:39.923Z,9968.00
2019-04-21T13:05:39.877Z,9940.00
2019-04-21T13:06:39.416Z,9912.00
2019-04-21T13:07:39.591Z,9884.00
2019-04-21T13:08:51.850Z,9852.00
2019-04-21T13:09:40.167Z,9800.00
2019-04-21T13:10:40.209Z,9780.00
2019-04-21T13:11:41.278Z,9756.00
2019-04-21T13:12:40.083Z,9712.00
2019-04-21T13:13:40.290Z,9660.00
2019-04-21T13:14:40.483Z,9628.00